Time;durP1;ratioP1;P1;durP2;ratioP2;P2;SDS_P1;SDS_P2;PMS_P1;PMS_P2;Temp;Humidity;BMP_temperature;BMP_pressure;BME280_temperature;BME280_humidity;BME280_pressure;Samples;Min_cycle;Max_cycle;Signal;HPM_P1;HPM_P2
2022/02/08 00:00:05;;;;;;;;;;;6.80;1.00;;;;;;5016497;28;19924;-83
2022/02/08 00:02:33;;;;;;;;;;;6.80;1.00;;;;;;5013965;28;19913;-83
2022/02/08 00:04:59;;;;;;;;;;;6.80;1.00;;;;;;5019153;28;20002;-83
2022/02/08 00:07:27;;;;;;;;;;;6.80;15.90;;;;;;5018733;28;19951;-82
2022/02/08 00:09:52;;;;;;;;;;;6.80;99.90;;;;;;5030322;28;20282;-81
2022/02/08 00:12:18;;;;;;;;;;;6.80;99.90;;;;;;5032138;28;19976;-83
2022/02/08 00:14:44;;;;;;;;;;;6.80;99.90;;;;;;5018392;28;19949;-83
2022/02/08 00:17:09;;;;;;;;;;;6.70;99.90;;;;;;5033845;28;19913;-83
2022/02/08 00:19:35;;;;;;;;;;;6.70;1.00;;;;;;5017006;28;19921;-82
2022/02/08 00:22:01;;;;;;;;;;;6.70;99.90;;;;;;5018191;28;19919;-81
2022/02/08 00:24:27;;;;;;;;;;;6.60;96.00;;;;;;5035532;28;19928;-83
2022/02/08 00:26:53;;;;;;;;;;;6.60;1.00;;;;;;5019974;28;19925;-82
2022/02/08 00:29:18;;;;;;;;;;;6.50;1.00;;;;;;5035566;28;20399;-83
2022/02/08 00:31:44;;;;;;;;;;;6.50;1.00;;;;;;5035129;28;19913;-82
2022/02/08 00:34:09;;;;;;;;;;;6.50;99.90;;;;;;5037895;28;19919;-83
2022/02/08 00:36:35;;;;;;;;;;;6.40;1.00;;;;;;5021795;28;19920;-83
2022/02/08 00:39:00;;;;;;;;;;;6.40;1.00;;;;;;5040228;28;19989;-81
2022/02/08 00:41:26;;;;;;;;;;;6.40;99.90;;;;;;5020376;28;19941;-82
2022/02/08 00:44:32;;;;;;;;;;;6.40;99.90;;;;;;5017358;28;20216;-83
2022/02/08 00:46:50;;;;;;;;;;;6.30;99.90;;;;;;5032913;28;19940;-83
2022/02/08 00:49:16;;;;;;;;;;;6.30;99.90;;;;;;5037982;28;19913;-83
2022/02/08 00:51:51;;;;;;;;;;;6.30;99.90;;;;;;5011628;28;19992;-81
2022/02/08 00:54:17;;;;;;;;;;;6.30;1.00;;;;;;5017709;28;20400;-83
2022/02/08 00:56:43;;;;;;;;;;;6.20;1.00;;;;;;5038650;28;19917;-83
2022/02/08 00:59:08;;;;;;;;;;;6.20;1.00;;;;;;5015899;28;19920;-82
2022/02/08 01:01:37;;;;;;;;;;;6.10;1.00;;;;;;5018863;28;19913;-80
2022/02/08 01:04:04;;;;;;;;;;;6.10;1.00;;;;;;5036478;28;19917;-83
2022/02/08 01:06:30;;;;;;;;;;;6.10;1.00;;;;;;5019518;28;19917;-82
2022/02/08 01:09:07;;;;;;;;;;;6.10;1.00;;;;;;5021080;28;19982;-83
2022/02/08 01:11:33;;;;;;;;;;;6.00;1.00;;;;;;5039548;28;19920;-83
2022/02/08 01:13:59;;;;;;;;;;;6.00;1.00;;;;;;5021766;28;19913;-83
2022/02/08 01:16:24;;;;;;;;;;;6.00;1.00;;;;;;5039504;28;19913;-83
2022/02/08 01:18:53;;;;;;;;;;;6.00;1.00;;;;;;5030904;28;20612;-83
2022/02/08 01:21:19;;;;;;;;;;;6.00;1.00;;;;;;5015721;28;19969;-83
2022/02/08 01:23:44;;;;;;;;;;;6.00;1.00;;;;;;5021169;28;19917;-83
2022/02/08 01:26:14;;;;;;;;;;;6.00;1.00;;;;;;5038492;28;20009;-82
2022/02/08 01:28:51;;;;;;;;;;;6.00;1.00;;;;;;5020688;28;20328;-82
2022/02/08 01:31:18;;;;;;;;;;;6.00;1.00;;;;;;5021333;28;20387;-82
2022/02/08 01:39:19;;;;;;;;;;;5.90;1.00;;;;;;5030431;28;19968;-81
2022/02/08 01:51:49;;;;;;;;;;;6.00;1.00;;;;;;5038231;28;19914;-83
2022/02/08 01:54:15;;;;;;;;;;;6.00;1.00;;;;;;5034754;28;19921;-82
2022/02/08 01:56:41;;;;;;;;;;;6.00;1.00;;;;;;5015116;28;19925;-83
2022/02/08 01:59:07;;;;;;;;;;;6.10;1.00;;;;;;5035147;28;19917;-83
2022/02/08 02:01:32;;;;;;;;;;;6.10;1.00;;;;;;5036149;28;19921;-83
2022/02/08 02:03:58;;;;;;;;;;;6.10;1.00;;;;;;5028376;28;20344;-82
2022/02/08 02:06:23;;;;;;;;;;;6.10;1.00;;;;;;5023774;28;19913;-82
2022/02/08 02:08:49;;;;;;;;;;;6.20;1.00;;;;;;5019876;28;20439;-83
2022/02/08 02:11:14;;;;;;;;;;;6.20;1.00;;;;;;5018350;28;19920;-82
2022/02/08 02:13:46;;;;;;;;;;;6.20;1.00;;;;;;5013448;28;19967;-83
2022/02/08 02:16:15;;;;;;;;;;;6.20;1.00;;;;;;5035597;28;19916;-82
2022/02/08 02:18:40;;;;;;;;;;;6.30;1.00;;;;;;5013934;28;19920;-82
2022/02/08 02:21:06;;;;;;;;;;;6.30;1.00;;;;;;5016315;28;20078;-82
2022/02/08 02:23:32;;;;;;;;;;;6.30;1.00;;;;;;5018859;28;19971;-84
2022/02/08 02:25:58;;;;;;;;;;;6.30;1.00;;;;;;5020149;28;19941;-84
2022/02/08 02:28:25;;;;;;;;;;;6.30;1.00;;;;;;5032908;28;19924;-84
2022/02/08 02:30:51;;;;;;;;;;;6.30;1.00;;;;;;5017586;28;19920;-83
2022/02/08 02:33:16;;;;;;;;;;;6.30;1.00;;;;;;5036306;28;19975;-83
2022/02/08 02:35:43;;;;;;;;;;;6.30;1.00;;;;;;5019023;28;19920;-82
2022/02/08 02:38:09;;;;;;;;;;;6.40;1.00;;;;;;5012532;28;19989;-84
2022/02/08 02:40:34;;;;;;;;;;;6.40;1.00;;;;;;5012821;28;19948;-84
2022/02/08 02:43:00;;;;;;;;;;;6.40;1.00;;;;;;5014157;28;20913;-84
2022/02/08 02:45:26;;;;;;;;;;;6.40;1.00;;;;;;5013250;28;19920;-83
2022/02/08 02:47:52;;;;;;;;;;;6.50;1.00;;;;;;5036489;28;19963;-83
2022/02/08 02:50:18;;;;;;;;;;;6.50;1.00;;;;;;5034578;28;19949;-84
2022/02/08 02:52:43;;;;;;;;;;;6.50;1.00;;;;;;5019120;28;19920;-82
2022/02/08 02:55:09;;;;;;;;;;;6.50;1.00;;;;;;5037204;28;19992;-84
2022/02/08 02:57:35;;;;;;;;;;;6.50;1.00;;;;;;5018520;28;20520;-84
2022/02/08 03:00:11;;;;;;;;;;;6.60;1.00;;;;;;5017200;28;19913;-83
2022/02/08 03:02:46;;;;;;;;;;;6.60;1.00;;;;;;5017381;28;20274;-83
2022/02/08 03:18:53;;;;;;;;;;;6.70;1.00;;;;;;5035880;28;20047;-82
2022/02/08 03:21:18;;;;;;;;;;;6.70;1.00;;;;;;5018383;28;19917;-83
2022/02/08 03:23:44;;;;;;;;;;;6.80;1.00;;;;;;5018214;28;19913;-83
2022/02/08 03:26:09;;;;;;;;;;;6.80;1.00;;;;;;5018599;28;19955;-82
2022/02/08 03:28:35;;;;;;;;;;;6.80;1.00;;;;;;5018274;28;19921;-83
2022/02/08 03:31:01;;;;;;;;;;;6.80;1.00;;;;;;5021876;28;19913;-83
2022/02/08 03:33:27;;;;;;;;;;;6.80;1.00;;;;;;5040461;28;20380;-82
2022/02/08 03:35:54;;;;;;;;;;;6.80;1.00;;;;;;5022418;28;19913;-82
2022/02/08 03:38:28;;;;;;;;;;;6.80;1.00;;;;;;5026166;28;19913;-83
2022/02/08 03:40:54;;;;;;;;;;;6.90;1.00;;;;;;5022017;28;19913;-83
2022/02/08 03:45:48;;;;;;;;;;;6.90;1.00;;;;;;5038287;28;19913;-81
2022/02/08 03:48:16;;;;;;;;;;;6.90;1.00;;;;;;5037843;28;19925;-83
2022/02/08 03:50:45;;;;;;;;;;;6.90;1.00;;;;;;5016731;28;20077;-83
2022/02/08 03:53:10;;;;;;;;;;;6.90;1.00;;;;;;5017810;28;19913;-83
2022/02/08 03:55:35;;;;;;;;;;;6.90;1.00;;;;;;5034403;28;19979;-83
2022/02/08 03:58:01;;;;;;;;;;;6.90;1.00;;;;;;5016699;28;20019;-83
2022/02/08 04:00:31;;;;;;;;;;;6.90;1.00;;;;;;5018936;28;20379;-84
2022/02/08 04:02:58;;;;;;;;;;;6.90;1.00;;;;;;5039447;28;19917;-83
2022/02/08 04:05:29;;;;;;;;;;;6.90;1.00;;;;;;5036163;28;20059;-81
2022/02/08 04:07:59;;;;;;;;;;;6.90;1.00;;;;;;5037616;28;19917;-84
2022/02/08 04:10:27;;;;;;;;;;;6.90;1.00;;;;;;5017300;28;19913;-83
2022/02/08 04:13:14;;;;;;;;;;;7.00;1.00;;;;;;5023039;28;19914;-83
2022/02/08 04:18:37;;;;;;;;;;;7.00;1.00;;;;;;5039506;28;19975;-83
2022/02/08 04:42:59;;;;;;;;;;;7.00;1.00;;;;;;5026957;28;19960;-83
2022/02/08 04:45:23;;;;;;;;;;;7.00;1.00;;;;;;5037475;28;20389;-84
2022/02/08 04:50:20;;;;;;;;;;;7.00;1.00;;;;;;5035702;28;19959;-82
2022/02/08 04:52:46;;;;;;;;;;;7.00;1.00;;;;;;5022132;28;19917;-84
2022/02/08 04:58:18;;;;;;;;;;;7.00;1.00;;;;;;5034513;28;19980;-84
2022/02/08 05:01:11;;;;;;;;;;;7.00;1.00;;;;;;5018932;28;19960;-84
2022/02/08 05:41:47;;;;;;;;;;;7.20;1.20;;;;;;5038626;28;19928;-83
2022/02/08 05:44:38;;;;;;;;;;;7.20;1.60;;;;;;5020450;28;19909;-84
2022/02/08 05:47:04;;;;;;;;;;;7.20;3.30;;;;;;5019881;28;19924;-84
2022/02/08 05:50:03;;;;;;;;;;;7.20;4.10;;;;;;5038706;28;20008;-84
2022/02/08 05:54:41;;;;;;;;;;;7.20;6.30;;;;;;5038957;28;19956;-84
2022/02/08 05:57:07;;;;;;;;;;;7.30;7.80;;;;;;5020177;28;19917;-84
2022/02/08 05:59:33;;;;;;;;;;;7.30;9.30;;;;;;5020742;28;19916;-84
2022/02/08 06:01:58;;;;;;;;;;;7.30;11.10;;;;;;5020588;28;19913;-84
2022/02/08 06:04:24;;;;;;;;;;;7.30;11.90;;;;;;5019095;28;19917;-83
2022/02/08 06:06:49;;;;;;;;;;;7.30;12.70;;;;;;5019964;28;19917;-84
2022/02/08 06:09:16;;;;;;;;;;;7.40;13.40;;;;;;5019003;28;19921;-84
2022/02/08 06:11:42;;;;;;;;;;;7.40;13.70;;;;;;5035155;28;19913;-85
2022/02/08 06:14:07;;;;;;;;;;;7.40;14.10;;;;;;5033463;28;19920;-84
2022/02/08 06:16:33;;;;;;;;;;;7.40;14.20;;;;;;5017518;28;19927;-84
2022/02/08 06:18:59;;;;;;;;;;;7.40;14.60;;;;;;5018668;28;20435;-84
2022/02/08 06:21:24;;;;;;;;;;;7.50;14.50;;;;;;5018807;28;19913;-84
2022/02/08 06:23:50;;;;;;;;;;;7.50;14.50;;;;;;5015785;28;19913;-84
2022/02/08 06:26:16;;;;;;;;;;;7.50;14.40;;;;;;5019139;28;19998;-85
2022/02/08 06:28:42;;;;;;;;;;;7.50;14.70;;;;;;5018722;28;20050;-84
2022/02/08 06:31:09;;;;;;;;;;;7.50;15.30;;;;;;5019476;28;20381;-85
2022/02/08 06:33:35;;;;;;;;;;;7.50;15.80;;;;;;5034672;28;20555;-84
2022/02/08 06:36:00;;;;;;;;;;;7.50;16.50;;;;;;5036990;28;19917;-84
2022/02/08 06:38:26;;;;;;;;;;;7.50;17.10;;;;;;5045225;28;19928;-86
2022/02/08 06:40:54;;;;;;;;;;;7.60;18.70;;;;;;5028838;28;20437;-86
2022/02/08 06:43:20;;;;;;;;;;;7.60;20.60;;;;;;5029552;28;19988;-87
2022/02/08 06:45:46;;;;;;;;;;;7.80;20.30;;;;;;5033561;28;19913;-86
2022/02/08 06:48:11;;;;;;;;;;;7.80;17.90;;;;;;5031913;28;19977;-86
2022/02/08 06:50:37;;;;;;;;;;;7.90;15.50;;;;;;5030632;28;19914;-86
2022/02/08 06:53:03;;;;;;;;;;;7.90;12.70;;;;;;5046962;28;19913;-85
2022/02/08 06:55:28;;;;;;;;;;;7.90;10.00;;;;;;5033130;28;19909;-86
2022/02/08 06:58:06;;;;;;;;;;;8.00;8.20;;;;;;5047877;28;19913;-86
2022/02/08 07:00:42;;;;;;;;;;;8.00;7.00;;;;;;5033437;28;19920;-86
2022/02/08 07:03:10;;;;;;;;;;;8.00;5.60;;;;;;5026016;28;19913;-86
2022/02/08 07:05:39;;;;;;;;;;;8.00;3.90;;;;;;5032985;28;20452;-86
2022/02/08 07:08:05;;;;;;;;;;;8.00;2.90;;;;;;5029130;28;19917;-85
2022/02/08 07:10:32;;;;;;;;;;;8.00;2.50;;;;;;5045105;28;19947;-86
2022/02/08 07:12:58;;;;;;;;;;;8.00;1.10;;;;;;5048059;28;19945;-86
2022/02/08 07:15:23;;;;;;;;;;;8.10;1.00;;;;;;5030655;28;19920;-86
2022/02/08 07:18:02;;;;;;;;;;;;;;;;;;;;;
2022/02/08 07:20:27;;;;;;;;;;;8.10;1.00;;;;;;5046801;28;19948;-86
2022/02/08 07:22:53;;;;;;;;;;;8.10;1.00;;;;;;5032393;28;19913;-86
2022/02/08 07:25:18;;;;;;;;;;;8.10;1.00;;;;;;5048732;28;20430;-86
2022/02/08 07:27:44;;;;;;;;;;;8.20;1.00;;;;;;5047734;28;19924;-86
2022/02/08 07:30:11;;;;;;;;;;;8.20;1.00;;;;;;5047934;28;19913;-86
2022/02/08 07:32:38;;;;;;;;;;;8.30;1.00;;;;;;5043571;28;19924;-86
2022/02/08 07:37:56;;;;;;;;;;;8.30;1.00;;;;;;5042360;28;19995;-86
2022/02/08 07:40:29;;;;;;;;;;;8.40;1.00;;;;;;5040723;28;19935;-87
2022/02/08 07:42:55;;;;;;;;;;;8.40;1.00;;;;;;5028339;28;19984;-87
2022/02/08 07:45:21;;;;;;;;;;;8.50;1.00;;;;;;5050607;28;19967;-88
2022/02/08 07:47:46;;;;;;;;;;;8.50;1.00;;;;;;5048799;28;19921;-88
2022/02/08 07:50:15;;;;;;;;;;;8.50;1.00;;;;;;5031093;28;20340;-87
2022/02/08 07:52:43;;;;;;;;;;;8.60;1.00;;;;;;5032560;28;19913;-86
2022/02/08 07:55:16;;;;;;;;;;;8.60;1.00;;;;;;5050390;28;20293;-88
2022/02/08 07:57:42;;;;;;;;;;;8.70;1.00;;;;;;5028623;28;19913;-87
2022/02/08 08:00:08;;;;;;;;;;;8.70;1.00;;;;;;5052390;28;19917;-87
2022/02/08 08:02:37;;;;;;;;;;;8.80;1.00;;;;;;5032205;28;19943;-88
2022/02/08 08:05:06;;;;;;;;;;;8.80;1.00;;;;;;5030774;28;19917;-88
2022/02/08 08:07:32;;;;;;;;;;;8.80;1.00;;;;;;5028064;28;19917;-88
2022/02/08 08:10:00;;;;;;;;;;;8.90;1.00;;;;;;5030693;28;19923;-88
2022/02/08 08:12:34;;;;;;;;;;;8.90;1.00;;;;;;5049741;28;19919;-88
2022/02/08 08:15:12;;;;;;;;;;;8.90;1.00;;;;;;5028840;28;19916;-88
2022/02/08 08:17:54;;;;;;;;;;;9.00;1.00;;;;;;5029827;28;19913;-87
2022/02/08 08:20:25;;;;;;;;;;;9.00;1.00;;;;;;5022979;28;19921;-88
2022/02/08 08:22:53;;;;;;;;;;;9.00;1.00;;;;;;5028939;28;19913;-88
2022/02/08 08:25:19;;;;;;;;;;;9.00;1.00;;;;;;5028838;28;19963;-88
2022/02/08 08:27:47;;;;;;;;;;;9.10;1.00;;;;;;5026386;28;19917;-88
2022/02/08 08:30:13;;;;;;;;;;;9.10;1.00;;;;;;5027440;28;19991;-89
2022/02/08 08:32:42;;;;;;;;;;;9.10;1.00;;;;;;5027222;28;19938;-87
2022/02/08 08:35:20;;;;;;;;;;;9.20;1.00;;;;;;5030659;28;19913;-88
2022/02/08 08:37:46;;;;;;;;;;;9.30;1.00;;;;;;5043606;28;19949;-88
2022/02/08 08:40:35;;;;;;;;;;;9.40;1.00;;;;;;5027577;28;19924;-87
2022/02/08 08:50:59;;;;;;;;;;;9.70;1.00;;;;;;5048271;28;19924;-89
2022/02/08 08:53:26;;;;;;;;;;;9.80;1.00;;;;;;5028227;28;19963;-88
2022/02/08 08:55:52;;;;;;;;;;;9.80;1.00;;;;;;5028846;28;19916;-88
2022/02/08 08:58:20;;;;;;;;;;;9.90;1.00;;;;;;5046834;28;19945;-88
2022/02/08 09:00:46;;;;;;;;;;;9.90;1.00;;;;;;5048599;28;19917;-87
2022/02/08 09:03:15;;;;;;;;;;;10.00;1.00;;;;;;5042454;28;19991;-88
2022/02/08 09:05:52;;;;;;;;;;;10.00;1.00;;;;;;5022758;28;19913;-87
2022/02/08 09:08:18;;;;;;;;;;;10.10;1.00;;;;;;5041531;28;19920;-88
2022/02/08 09:10:54;;;;;;;;;;;10.10;1.00;;;;;;5045150;28;19917;-87
2022/02/08 09:13:33;;;;;;;;;;;10.10;1.00;;;;;;5018431;28;19936;-88
2022/02/08 09:19:00;;;;;;;;;;;10.20;1.00;;;;;;5041447;28;19917;-87
2022/02/08 09:29:35;;;;;;;;;;;10.30;99.90;;;;;;5038777;28;19924;-87
2022/02/08 09:32:11;;;;;;;;;;;10.30;99.90;;;;;;5038252;28;19913;-87
2022/02/08 09:34:41;;;;;;;;;;;10.40;99.90;;;;;;5019410;28;19909;-87
2022/02/08 09:37:07;;;;;;;;;;;10.50;99.90;;;;;;5016488;28;19913;-87
2022/02/08 09:39:32;;;;;;;;;;;10.50;99.90;;;;;;5042667;28;20051;-86
2022/02/08 09:41:58;;;;;;;;;;;10.50;99.90;;;;;;5038468;28;19909;-87
2022/02/08 09:44:26;;;;;;;;;;;10.50;99.90;;;;;;5019681;28;19959;-88
2022/02/08 09:46:52;;;;;;;;;;;10.60;99.90;;;;;;5040942;28;19976;-87
2022/02/08 09:49:18;;;;;;;;;;;10.60;99.90;;;;;;5042530;28;19909;-87
2022/02/08 09:51:50;;;;;;;;;;;10.60;99.90;;;;;;5029454;28;19925;-88
2022/02/08 09:54:15;;;;;;;;;;;10.60;99.90;;;;;;5043430;28;19931;-87
2022/02/08 09:56:44;;;;;;;;;;;10.50;99.90;;;;;;5025122;28;19909;-87
2022/02/08 09:59:10;;;;;;;;;;;10.50;99.90;;;;;;5030251;28;19925;-88
2022/02/08 10:01:37;;;;;;;;;;;10.50;99.90;;;;;;5029370;28;20003;-87
2022/02/08 10:04:03;;;;;;;;;;;10.50;99.90;;;;;;5030035;28;19924;-87
2022/02/08 10:06:29;;;;;;;;;;;10.50;99.90;;;;;;5047605;28;19914;-87
2022/02/08 10:09:05;;;;;;;;;;;10.50;99.90;;;;;;5050157;28;19924;-88
2022/02/08 10:11:41;;;;;;;;;;;10.50;99.90;;;;;;5027985;28;19913;-87
2022/02/08 10:22:48;;;;;;;;;;;10.60;71.30;;;;;;5039769;28;20661;-87
2022/02/08 10:25:20;;;;;;;;;;;10.70;52.20;;;;;;5036184;28;19917;-87
2022/02/08 10:28:01;;;;;;;;;;;10.70;44.80;;;;;;5029342;28;19932;-87
2022/02/08 10:38:45;;;;;;;;;;;10.80;1.00;;;;;;5045144;28;19947;-87
2022/02/08 10:41:14;;;;;;;;;;;10.80;1.00;;;;;;5033618;28;19988;-86
2022/02/08 10:43:42;;;;;;;;;;;10.80;1.00;;;;;;5047324;28;19963;-86
2022/02/08 10:46:20;;;;;;;;;;;10.90;1.00;;;;;;5031782;28;19932;-87
2022/02/08 10:48:46;;;;;;;;;;;10.90;99.90;;;;;;5045738;28;19925;-86
2022/02/08 10:51:17;;;;;;;;;;;10.90;99.90;;;;;;5049450;28;19920;-87
2022/02/08 10:53:54;;;;;;;;;;;10.90;99.90;;;;;;5049015;28;19913;-86
2022/02/08 10:56:24;;;;;;;;;;;11.00;1.00;;;;;;5029988;28;19913;-86
2022/02/08 10:58:56;;;;;;;;;;;11.10;29.00;;;;;;5048570;28;19931;-86
2022/02/08 11:01:27;;;;;;;;;;;11.10;99.90;;;;;;5046807;28;19913;-86
2022/02/08 11:04:02;;;;;;;;;;;11.20;69.80;;;;;;5049468;28;19967;-87
2022/02/08 11:06:34;;;;;;;;;;;11.20;99.90;;;;;;5044174;28;19944;-87
2022/02/08 11:09:20;;;;;;;;;;;11.30;1.00;;;;;;5030550;28;19916;-86
2022/02/08 11:19:35;;;;;;;;;;;11.60;9.50;;;;;;5045709;28;19977;-87
2022/02/08 11:22:07;;;;;;;;;;;11.50;1.00;;;;;;5027822;28;20545;-87
2022/02/08 11:24:43;;;;;;;;;;;11.50;1.00;;;;;;5023363;28;19913;-87
2022/02/08 11:27:12;;;;;;;;;;;11.50;1.00;;;;;;5032573;28;19936;-86
2022/02/08 11:29:53;;;;;;;;;;;11.50;1.00;;;;;;5027504;28;19913;-86
2022/02/08 11:32:35;;;;;;;;;;;11.50;1.00;;;;;;5044805;28;19913;-87
2022/02/08 11:49:24;;;;;;;;;;;11.80;99.90;;;;;;5038470;28;19917;-87
2022/02/08 11:57:14;;;;;;;;;;;12.00;99.90;;;;;;5035212;28;19921;-86
2022/02/08 12:07:07;;;;;;;;;;;12.30;1.00;;;;;;5035406;28;19920;-86
2022/02/08 12:10:16;;;;;;;;;;;12.30;1.00;;;;;;5021912;28;19913;-85
2022/02/08 12:13:01;;;;;;;;;;;12.40;1.00;;;;;;5033057;28;19932;-87
2022/02/08 12:52:43;;;;;;;;;;;12.70;9.20;;;;;;5046734;28;19936;-84
2022/02/08 12:57:49;;;;;;;;;;;12.70;3.70;;;;;;5041068;28;20266;-85
2022/02/08 13:00:49;;;;;;;;;;;12.80;1.00;;;;;;5021707;28;19920;-85
2022/02/08 13:14:17;;;;;;;;;;;12.80;1.00;;;;;;5035626;28;20305;-85
2022/02/08 13:24:44;;;;;;;;;;;12.80;1.00;;;;;;5042583;28;19972;-86
2022/02/08 14:22:36;;;;;;;;;;;13.80;1.00;;;;;;5029213;28;19913;-85
2022/02/08 14:25:47;;;;;;;;;;;13.70;1.00;;;;;;5029063;28;19920;-86
2022/02/08 14:36:08;;;;;;;;;;;13.30;1.00;;;;;;5026272;28;19925;-86
2022/02/08 14:59:02;;;;;;;;;;;13.90;1.00;;;;;;5029319;28;19931;-85
2022/02/08 15:08:39;;;;;;;;;;;13.20;1.00;;;;;;5032884;28;19932;-85
2022/02/08 15:11:08;;;;;;;;;;;13.10;1.00;;;;;;5014249;28;19917;-85
2022/02/08 15:13:35;;;;;;;;;;;12.90;1.00;;;;;;5030832;28;19921;-85
2022/02/08 15:18:37;;;;;;;;;;;12.70;1.00;;;;;;5020458;28;19975;-86
2022/02/08 15:21:06;;;;;;;;;;;12.50;1.00;;;;;;5006868;28;19913;-85
2022/02/08 15:23:32;;;;;;;;;;;12.40;1.00;;;;;;5031876;28;20293;-86
2022/02/08 15:25:59;;;;;;;;;;;12.40;1.00;;;;;;5031760;28;19917;-85
2022/02/08 15:28:26;;;;;;;;;;;12.40;1.00;;;;;;5012959;28;19931;-85
2022/02/08 15:30:53;;;;;;;;;;;12.30;1.00;;;;;;5013397;28;19967;-86
2022/02/08 15:33:19;;;;;;;;;;;12.20;1.00;;;;;;5030664;28;20361;-85
2022/02/08 15:35:44;;;;;;;;;;;12.20;1.00;;;;;;5014684;28;19937;-85
2022/02/08 15:38:10;;;;;;;;;;;12.10;7.80;;;;;;5030301;28;19921;-85
2022/02/08 15:43:54;;;;;;;;;;;11.90;87.50;;;;;;4945244;28;20010;-85
2022/02/08 15:46:24;;;;;;;;;;;11.80;99.90;;;;;;5024960;28;20504;-85
2022/02/08 15:48:52;;;;;;;;;;;11.70;99.90;;;;;;5031458;28;19917;-85
2022/02/08 15:51:25;;;;;;;;;;;11.70;99.90;;;;;;5011910;28;20385;-85
2022/02/08 15:54:12;;;;;;;;;;;11.60;99.90;;;;;;5032141;28;19967;-85
2022/02/08 16:07:13;;;;;;;;;;;11.30;1.00;;;;;;5036895;28;19921;-85
2022/02/08 16:12:26;;;;;;;;;;;11.20;1.00;;;;;;5034702;28;19943;-84
2022/02/08 16:17:51;;;;;;;;;;;11.20;99.90;;;;;;5035440;28;19920;-85
2022/02/08 16:20:41;;;;;;;;;;;11.10;99.90;;;;;;5018120;28;20008;-85
2022/02/08 16:25:58;;;;;;;;;;;11.00;99.90;;;;;;5035514;28;19983;-85
2022/02/08 16:28:47;;;;;;;;;;;11.00;99.90;;;;;;5031856;28;19923;-84
2022/02/08 16:53:22;;;;;;;;;;;10.70;1.00;;;;;;4991248;28;19936;-85
2022/02/08 16:58:27;;;;;;;;;;;10.70;90.00;;;;;;5038803;28;19924;-85
2022/02/08 17:00:59;;;;;;;;;;;10.60;99.90;;;;;;5038020;28;20385;-83
2022/02/08 17:03:29;;;;;;;;;;;10.60;99.90;;;;;;5040746;28;19963;-83
2022/02/08 17:05:55;;;;;;;;;;;10.60;1.00;;;;;;5031112;28;20488;-82
2022/02/08 17:08:23;;;;;;;;;;;10.50;99.90;;;;;;5019471;28;19917;-84
2022/02/08 17:10:51;;;;;;;;;;;10.50;1.00;;;;;;5039842;28;19945;-85
2022/02/08 17:13:36;;;;;;;;;;;10.40;99.90;;;;;;5020067;28;19913;-84
2022/02/08 17:16:13;;;;;;;;;;;10.40;23.10;;;;;;5028338;28;19920;-84
2022/02/08 17:47:51;;;;;;;;;;;10.00;99.90;;;;;;5034491;28;20469;-84
2022/02/08 17:50:17;;;;;;;;;;;10.00;99.90;;;;;;5039006;28;19913;-83
2022/02/08 17:52:44;;;;;;;;;;;10.00;99.90;;;;;;5017069;28;19920;-84
2022/02/08 17:55:10;;;;;;;;;;;10.10;99.90;;;;;;5018189;28;19913;-82
2022/02/08 17:57:36;;;;;;;;;;;10.10;99.90;;;;;;5039273;28;19913;-84
2022/02/08 18:00:04;;;;;;;;;;;10.10;99.90;;;;;;5020196;28;19944;-83
2022/02/08 18:02:29;;;;;;;;;;;10.10;99.90;;;;;;5019864;28;20099;-83
2022/02/08 18:04:57;;;;;;;;;;;10.20;99.90;;;;;;5020886;28;19952;-83
2022/02/08 18:07:24;;;;;;;;;;;10.20;99.90;;;;;;5021970;28;20492;-84
2022/02/08 18:09:51;;;;;;;;;;;10.20;99.90;;;;;;5045490;28;19920;-83
2022/02/08 18:12:18;;;;;;;;;;;10.20;99.90;;;;;;5020363;28;19975;-84
2022/02/08 18:14:50;;;;;;;;;;;10.20;99.90;;;;;;5019889;28;19948;-84
2022/02/08 18:17:20;;;;;;;;;;;10.20;99.90;;;;;;5041503;28;19951;-84
2022/02/08 18:19:57;;;;;;;;;;;10.20;99.90;;;;;;5020420;28;19913;-83
2022/02/08 19:14:33;;;;;;;;;;;10.20;99.90;;;;;;5031797;28;19924;-83
2022/02/08 19:22:08;;;;;;;;;;;10.10;1.00;;;;;;5033642;28;19924;-84
2022/02/08 19:24:34;;;;;;;;;;;10.10;1.00;;;;;;5015370;28;19924;-83
2022/02/08 19:27:00;;;;;;;;;;;10.10;1.00;;;;;;5035632;28;19914;-82
2022/02/08 19:29:27;;;;;;;;;;;10.10;1.00;;;;;;5016629;28;19949;-83
2022/02/08 19:31:53;;;;;;;;;;;10.10;1.00;;;;;;5016110;28;19923;-80
2022/02/08 19:34:19;;;;;;;;;;;10.10;24.20;;;;;;5034473;28;20298;-82
2022/02/08 19:36:45;;;;;;;;;;;10.10;57.50;;;;;;5028020;28;19992;-83
2022/02/08 19:39:11;;;;;;;;;;;10.10;91.40;;;;;;5011518;28;19949;-82
2022/02/08 19:41:37;;;;;;;;;;;10.10;20.40;;;;;;5015145;28;20464;-82
2022/02/08 19:44:03;;;;;;;;;;;10.10;1.00;;;;;;5032118;28;20015;-82
2022/02/08 19:46:28;;;;;;;;;;;10.10;1.00;;;;;;5015105;28;19935;-82
2022/02/08 19:48:54;;;;;;;;;;;10.10;1.00;;;;;;5018656;28;19921;-83
2022/02/08 19:51:20;;;;;;;;;;;10.10;1.00;;;;;;5034989;28;19917;-82
2022/02/08 19:53:47;;;;;;;;;;;10.10;1.00;;;;;;5033912;28;19917;-83
2022/02/08 19:58:42;;;;;;;;;;;10.10;99.90;;;;;;5035751;28;19963;-83
2022/02/08 20:01:11;;;;;;;;;;;10.10;8.40;;;;;;5006674;28;19914;-82
2022/02/08 20:04:00;;;;;;;;;;;10.10;1.00;;;;;;5035921;28;19952;-83
2022/02/08 20:06:23;;;;;;;;;;;10.10;1.00;;;;;;5034764;28;20445;-83
2022/02/08 20:08:48;;;;;;;;;;;10.10;1.00;;;;;;5038386;28;19917;-82
2022/02/08 20:11:14;;;;;;;;;;;10.10;99.90;;;;;;5033636;28;19928;-83
2022/02/08 20:13:51;;;;;;;;;;;10.00;99.90;;;;;;5017596;28;19960;-82
2022/02/08 20:16:17;;;;;;;;;;;10.10;99.90;;;;;;5007111;28;19909;-83
2022/02/08 20:18:45;;;;;;;;;;;10.00;99.90;;;;;;5016071;28;19932;-82
2022/02/08 20:21:11;;;;;;;;;;;10.00;99.90;;;;;;5027574;28;19910;-82
2022/02/08 20:23:37;;;;;;;;;;;10.00;99.90;;;;;;5026425;28;20324;-82
2022/02/08 20:26:04;;;;;;;;;;;10.00;99.90;;;;;;5032771;28;19963;-81
2022/02/08 20:31:14;;;;;;;;;;;10.10;99.90;;;;;;5034343;28;19948;-81
2022/02/08 20:33:40;;;;;;;;;;;10.10;99.90;;;;;;5031798;28;19917;-81
2022/02/08 20:36:06;;;;;;;;;;;10.00;99.90;;;;;;5012524;28;19921;-82
2022/02/08 20:38:31;;;;;;;;;;;10.00;99.90;;;;;;5016267;28;19914;-82
2022/02/08 20:40:57;;;;;;;;;;;10.00;1.00;;;;;;5027339;28;19913;-81
2022/02/08 20:43:23;;;;;;;;;;;10.00;1.00;;;;;;5032993;28;19920;-81
2022/02/08 20:45:49;;;;;;;;;;;10.00;1.00;;;;;;5011729;28;20293;-82
2022/02/08 20:48:14;;;;;;;;;;;10.00;36.80;;;;;;5020055;28;19927;-82
2022/02/08 20:50:40;;;;;;;;;;;10.00;99.90;;;;;;5017862;28;20394;-83
2022/02/08 20:53:25;;;;;;;;;;;10.00;99.90;;;;;;5037421;28;19920;-83
2022/02/08 20:56:07;;;;;;;;;;;10.00;1.00;;;;;;5017788;28;19913;-81
2022/02/08 20:59:08;;;;;;;;;;;10.00;79.70;;;;;;5034956;28;19937;-82
2022/02/08 21:01:24;;;;;;;;;;;10.00;99.90;;;;;;5033413;28;20339;-81
2022/02/08 21:06:24;;;;;;;;;;;10.00;1.00;;;;;;5036341;28;20328;-81
2022/02/08 21:08:50;;;;;;;;;;;10.00;29.20;;;;;;5032726;28;19917;-83
2022/02/08 21:11:16;;;;;;;;;;;10.00;51.90;;;;;;5016881;28;19914;-82
2022/02/08 21:13:51;;;;;;;;;;;10.00;99.90;;;;;;5014977;28;19921;-83
2022/02/08 21:16:27;;;;;;;;;;;10.00;99.90;;;;;;5036369;28;19920;-82
2022/02/08 21:18:53;;;;;;;;;;;10.00;99.90;;;;;;5019119;28;19913;-81
2022/02/08 21:21:19;;;;;;;;;;;10.00;99.90;;;;;;5026111;28;20287;-82
2022/02/08 21:23:46;;;;;;;;;;;10.00;98.80;;;;;;5036091;28;19964;-82
2022/02/08 21:26:16;;;;;;;;;;;10.00;1.00;;;;;;5016241;28;19956;-81
2022/02/08 21:29:07;;;;;;;;;;;10.00;1.00;;;;;;5034755;28;19917;-82
2022/02/08 21:51:26;;;;;;;;;;;10.00;99.90;;;;;;4992243;28;19922;-81
2022/02/08 21:53:54;;;;;;;;;;;9.90;1.00;;;;;;4973004;28;20409;-82
2022/02/08 21:56:19;;;;;;;;;;;9.90;1.00;;;;;;5012543;28;19935;-82
2022/02/08 21:58:45;;;;;;;;;;;9.90;1.00;;;;;;5034629;28;19996;-82
2022/02/08 22:01:10;;;;;;;;;;;9.90;1.00;;;;;;5016018;28;19921;-82
2022/02/08 22:03:36;;;;;;;;;;;9.90;1.00;;;;;;5017377;28;20052;-83
2022/02/08 22:06:04;;;;;;;;;;;9.90;1.00;;;;;;5034393;28;19959;-82
2022/02/08 22:24:10;;;;;;;;;;;9.90;1.00;;;;;;5034525;28;19960;-83
2022/02/08 22:31:51;;;;;;;;;;;9.90;1.00;;;;;;5034365;28;19921;-82
2022/02/08 22:34:22;;;;;;;;;;;9.90;1.00;;;;;;5017929;28;19924;-82
2022/02/08 22:37:05;;;;;;;;;;;9.90;1.00;;;;;;5034488;28;20370;-82
2022/02/08 22:39:49;;;;;;;;;;;9.90;1.00;;;;;;5030533;28;19913;-81
2022/02/08 22:42:21;;;;;;;;;;;9.90;1.00;;;;;;5013467;28;20400;-80
2022/02/08 22:44:51;;;;;;;;;;;9.90;1.00;;;;;;5035352;28;20477;-82
2022/02/08 22:47:16;;;;;;;;;;;9.90;20.40;;;;;;5033222;28;19921;-83
2022/02/08 22:49:42;;;;;;;;;;;9.90;1.00;;;;;;5018742;28;20297;-82
2022/02/08 22:52:08;;;;;;;;;;;9.90;1.00;;;;;;5035555;28;19920;-83
2022/02/08 22:54:34;;;;;;;;;;;9.90;93.00;;;;;;5033567;28;19960;-82
2022/02/08 22:56:59;;;;;;;;;;;9.90;99.90;;;;;;5014783;28;19913;-81
2022/02/08 22:59:25;;;;;;;;;;;9.90;99.90;;;;;;5032035;28;20311;-82
2022/02/08 23:01:51;;;;;;;;;;;9.80;99.90;;;;;;5018058;28;20325;-82
2022/02/08 23:04:19;;;;;;;;;;;9.80;99.90;;;;;;5033683;28;19918;-82
2022/02/08 23:06:48;;;;;;;;;;;9.80;99.90;;;;;;5016962;28;19917;-80
2022/02/08 23:09:22;;;;;;;;;;;9.80;99.90;;;;;;5031946;28;20396;-82
2022/02/08 23:12:40;;;;;;;;;;;9.80;99.90;;;;;;5008578;28;19913;-81
2022/02/08 23:14:56;;;;;;;;;;;9.80;99.90;;;;;;5023704;28;19913;-82